Time;durP1;ratioP1;P1;durP2;ratioP2;P2;SDS_P1;SDS_P2;PMS_P1;PMS_P2;Temp;Humidity;BMP_temperature;BMP_pressure;BME280_temperature;BME280_humidity;BME280_pressure;Samples;Min_cycle;Max_cycle;Signal;HPM_P1;HPM_P2
2023/10/26 00:02:37;;;;;;;1.70;0.60;;;;;;;;;;5055465;28;20188;-83
2023/10/26 00:05:40;;;;;;;0.80;0.50;;;;;;;;;;5031977;28;20527;-83
2023/10/26 00:08:46;;;;;;;1.63;0.57;;;;;;;;;;5055444;28;20219;-83
2023/10/26 00:11:52;;;;;;;1.00;0.50;;;;;;;;;;5032498;28;20204;-83
2023/10/26 00:14:59;;;;;;;1.33;0.50;;;;;;;;;;5054247;28;20204;-83
2023/10/26 00:18:09;;;;;;;1.83;0.70;;;;;;;;;;5033776;28;20180;-83
2023/10/26 00:21:13;;;;;;;3.10;0.80;;;;;;;;;;5043833;28;20188;-83
2023/10/26 00:24:17;;;;;;;0.90;0.60;;;;;;;;;;5054154;28;20172;-83
2023/10/26 00:27:21;;;;;;;0.50;0.40;;;;;;;;;;5055811;28;20176;-83
2023/10/26 00:30:26;;;;;;;0.70;0.50;;;;;;;;;;5032260;28;20184;-83
2023/10/26 00:33:31;;;;;;;1.27;0.50;;;;;;;;;;5046111;28;20542;-83
2023/10/26 00:36:37;;;;;;;1.47;0.70;;;;;;;;;;5047332;28;20184;-83
2023/10/26 00:39:50;;;;;;;0.63;0.40;;;;;;;;;;5048244;28;20208;-83
2023/10/26 00:43:00;;;;;;;2.10;0.67;;;;;;;;;;5058345;28;20617;-83
2023/10/26 00:46:14;;;;;;;1.13;0.50;;;;;;;;;;5035502;28;20189;-83
2023/10/26 00:49:19;;;;;;;0.47;0.40;;;;;;;;;;5058539;28;20561;-83
2023/10/26 00:52:23;;;;;;;2.20;0.70;;;;;;;;;;5057943;28;20633;-83
2023/10/26 00:55:29;;;;;;;1.80;0.60;;;;;;;;;;5058327;28;20211;-83
2023/10/26 00:58:39;;;;;;;0.83;0.43;;;;;;;;;;5058095;28;20569;-83
2023/10/26 01:01:50;;;;;;;0.63;0.50;;;;;;;;;;5046794;28;20176;-83
2023/10/26 01:04:55;;;;;;;2.20;0.70;;;;;;;;;;5064273;28;20184;-83
2023/10/26 01:08:07;;;;;;;1.23;0.50;;;;;;;;;;5057715;28;20188;-83
2023/10/26 01:11:15;;;;;;;2.33;0.50;;;;;;;;;;5047282;28;20176;-83
2023/10/26 01:14:20;;;;;;;3.60;0.40;;;;;;;;;;5046609;28;20208;-83
2023/10/26 01:17:25;;;;;;;1.60;0.50;;;;;;;;;;5034540;28;20541;-83
2023/10/26 01:20:31;;;;;;;1.00;0.50;;;;;;;;;;5023824;28;20180;-83
2023/10/26 01:23:36;;;;;;;1.30;0.70;;;;;;;;;;5057273;28;20197;-83
2023/10/26 01:26:42;;;;;;;1.13;0.70;;;;;;;;;;5057045;28;20185;-83
2023/10/26 01:30:44;;;;;;;0.70;0.40;;;;;;;;;;5051503;28;20558;-83
2023/10/26 01:33:54;;;;;;;1.67;0.60;;;;;;;;;;5045280;28;20200;-83
2023/10/26 01:37:05;;;;;;;1.53;0.43;;;;;;;;;;5035739;28;20180;-83
2023/10/26 01:40:10;;;;;;;0.97;0.50;;;;;;;;;;5045831;28;20681;-83
2023/10/26 01:43:16;;;;;;;1.27;0.40;;;;;;;;;;5059734;28;20184;-83
2023/10/26 01:46:20;;;;;;;4.57;0.60;;;;;;;;;;5047270;28;20176;-83
2023/10/26 01:49:26;;;;;;;1.20;0.50;;;;;;;;;;5036977;28;20215;-83
2023/10/26 01:53:00;;;;;;;1.60;0.50;;;;;;;;;;5024783;28;20185;-83
2023/10/26 01:56:12;;;;;;;0.63;0.43;;;;;;;;;;5058246;28;20168;-83
2023/10/26 01:59:23;;;;;;;2.10;0.60;;;;;;;;;;5036006;28;20220;-83
2023/10/26 02:02:34;;;;;;;4.43;0.60;;;;;;;;;;5047019;28;20177;-83
2023/10/26 02:05:44;;;;;;;0.40;0.40;;;;;;;;;;5057829;28;20176;-83
2023/10/26 02:09:01;;;;;;;1.90;0.50;;;;;;;;;;5035293;28;20220;-83
2023/10/26 02:15:52;;;;;;;0.80;0.40;;;;;;;;;;5050730;28;20224;-83
2023/10/26 02:18:56;;;;;;;4.27;0.57;;;;;;;;;;5033190;28;20228;-83
2023/10/26 02:22:00;;;;;;;1.90;0.60;;;;;;;;;;5056850;28;20180;-82
2023/10/26 02:25:05;;;;;;;2.47;1.20;;;;;;;;;;5056294;28;20172;-83
2023/10/26 02:28:15;;;;;;;3.00;1.00;;;;;;;;;;5044464;28;20176;-83
2023/10/26 02:31:21;;;;;;;1.40;0.80;;;;;;;;;;5056021;28;20206;-83
2023/10/26 02:34:32;;;;;;;4.13;1.00;;;;;;;;;;5044528;28;20227;-83
2023/10/26 02:38:16;;;;;;;1.07;0.80;;;;;;;;;;5050005;28;20193;-83
2023/10/26 02:42:04;;;;;;;1.60;1.00;;;;;;;;;;5055949;28;20199;-83
2023/10/26 02:45:09;;;;;;;2.23;1.00;;;;;;;;;;5043969;28;20621;-83
2023/10/26 02:48:15;;;;;;;3.27;0.97;;;;;;;;;;5055089;28;20180;-83
2023/10/26 02:51:21;;;;;;;3.10;1.17;;;;;;;;;;5043922;28;20176;-83
2023/10/26 02:54:29;;;;;;;2.73;1.30;;;;;;;;;;5021932;28;20208;-83
2023/10/26 02:57:34;;;;;;;2.37;1.13;;;;;;;;;;5055167;28;20191;-83
2023/10/26 03:00:45;;;;;;;4.43;2.10;;;;;;;;;;5032396;28;20526;-83
2023/10/26 03:03:55;;;;;;;8.30;2.73;;;;;;;;;;5044871;28;20181;-83
2023/10/26 03:07:01;;;;;;;8.97;3.83;;;;;;;;;;5054270;28;20527;-83
2023/10/26 03:10:08;;;;;;;12.70;5.07;;;;;;;;;;5042702;28;20219;-83
2023/10/26 03:13:13;;;;;;;12.17;6.67;;;;;;;;;;5043075;28;20184;-83
2023/10/26 03:16:18;;;;;;;10.53;5.27;;;;;;;;;;5031552;28;20204;-83
2023/10/26 03:19:23;;;;;;;8.27;3.80;;;;;;;;;;5042899;28;20223;-83
2023/10/26 03:22:30;;;;;;;4.60;3.00;;;;;;;;;;5032043;28;20180;-83
2023/10/26 03:25:35;;;;;;;4.10;2.00;;;;;;;;;;5054229;28;20169;-83
2023/10/26 03:28:39;;;;;;;1.97;1.20;;;;;;;;;;5054777;28;20219;-83
2023/10/26 03:31:44;;;;;;;3.47;1.80;;;;;;;;;;5031325;28;20531;-83
2023/10/26 03:34:48;;;;;;;9.83;3.60;;;;;;;;;;5031003;28;20223;-83
2023/10/26 03:37:54;;;;;;;3.17;1.90;;;;;;;;;;5053816;28;20188;-83
2023/10/26 03:40:59;;;;;;;2.03;0.80;;;;;;;;;;5053895;28;20176;-83
2023/10/26 03:44:09;;;;;;;0.70;0.60;;;;;;;;;;5054564;28;20180;-83
2023/10/26 03:47:22;;;;;;;1.10;0.90;;;;;;;;;;5033013;28;20184;-83
2023/10/26 03:50:41;;;;;;;2.80;1.00;;;;;;;;;;5031041;28;20180;-83
2023/10/26 03:53:50;;;;;;;1.30;1.00;;;;;;;;;;5053466;28;20180;-83
2023/10/26 03:57:00;;;;;;;0.70;0.70;;;;;;;;;;5053632;28;20181;-83
2023/10/26 04:00:14;;;;;;;2.03;1.40;;;;;;;;;;5041715;28;20216;-83
2023/10/26 04:03:20;;;;;;;1.70;1.30;;;;;;;;;;5031213;28;20204;-83
2023/10/26 04:06:26;;;;;;;2.60;1.70;;;;;;;;;;5044356;28;20172;-83
2023/10/26 04:09:30;;;;;;;3.80;2.50;;;;;;;;;;5058237;28;20219;-83
2023/10/26 04:12:35;;;;;;;2.00;1.37;;;;;;;;;;5057612;28;20180;-83
2023/10/26 04:15:40;;;;;;;1.03;0.90;;;;;;;;;;5058259;28;20207;-82
2023/10/26 04:18:45;;;;;;;2.73;1.90;;;;;;;;;;5035147;28;20216;-83
2023/10/26 04:21:52;;;;;;;3.53;2.77;;;;;;;;;;5046303;28;20192;-83
2023/10/26 04:24:56;;;;;;;1.97;1.30;;;;;;;;;;5035022;28;20175;-83
2023/10/26 04:28:08;;;;;;;4.60;3.00;;;;;;;;;;5058151;28;20223;-83
2023/10/26 04:31:20;;;;;;;8.10;3.60;;;;;;;;;;5035927;28;20527;-83
2023/10/26 04:34:26;;;;;;;3.33;2.10;;;;;;;;;;5046078;28;20208;-82
2023/10/26 04:37:29;;;;;;;3.37;2.20;;;;;;;;;;5057077;28;20180;-83
2023/10/26 04:40:34;;;;;;;5.93;4.10;;;;;;;;;;5057944;28;20180;-82
2023/10/26 04:43:39;;;;;;;3.50;2.50;;;;;;;;;;5057558;28;20184;-83
2023/10/26 04:46:43;;;;;;;2.67;1.87;;;;;;;;;;5034641;28;20172;-83
2023/10/26 04:49:47;;;;;;;5.70;3.80;;;;;;;;;;5056937;28;20212;-83
2023/10/26 04:52:51;;;;;;;6.60;2.10;;;;;;;;;;5056855;28;20641;-83
2023/10/26 04:55:55;;;;;;;6.90;4.23;;;;;;;;;;5056954;28;20212;-83
2023/10/26 04:58:59;;;;;;;8.90;5.17;;;;;;;;;;5057383;28;20219;-83
2023/10/26 05:02:04;;;;;;;9.40;5.17;;;;;;;;;;5045348;28;20192;-83
2023/10/26 05:05:09;;;;;;;5.20;3.43;;;;;;;;;;5045464;28;20176;-82
2023/10/26 05:08:13;;;;;;;5.60;3.30;;;;;;;;;;5033969;28;20561;-82
2023/10/26 05:11:19;;;;;;;3.00;1.73;;;;;;;;;;5045231;28;20633;-82
2023/10/26 05:14:23;;;;;;;4.37;1.60;;;;;;;;;;5056490;28;20184;-82
2023/10/26 05:17:27;;;;;;;12.53;4.90;;;;;;;;;;5056588;28;20176;-82
2023/10/26 05:20:32;;;;;;;9.00;4.67;;;;;;;;;;5045003;28;20176;-82
2023/10/26 05:23:40;;;;;;;4.27;2.73;;;;;;;;;;5045054;28;20180;-83
2023/10/26 05:26:48;;;;;;;11.53;7.20;;;;;;;;;;5045783;28;20176;-83
2023/10/26 05:29:59;;;;;;;11.83;6.60;;;;;;;;;;5056913;28;20216;-83
2023/10/26 05:33:03;;;;;;;90.27;44.07;;;;;;;;;;5056770;28;20641;-83
2023/10/26 05:36:08;;;;;;;32.80;20.30;;;;;;;;;;5056489;28;20200;-83
2023/10/26 05:39:12;;;;;;;10.13;7.27;;;;;;;;;;5057324;28;20692;-83
2023/10/26 05:42:16;;;;;;;12.43;6.97;;;;;;;;;;5056297;28;20180;-83
2023/10/26 05:45:20;;;;;;;10.97;5.23;;;;;;;;;;5056793;28;20176;-83
2023/10/26 05:48:24;;;;;;;3.17;1.83;;;;;;;;;;5056130;28;20215;-83
2023/10/26 05:51:29;;;;;;;1.43;1.10;;;;;;;;;;5035254;28;20180;-83
2023/10/26 05:54:47;;;;;;;4.37;2.37;;;;;;;;;;5041536;28;20629;-82
2023/10/26 05:57:51;;;;;;;0.90;0.80;;;;;;;;;;5037152;28;20641;-84
2023/10/26 06:00:56;;;;;;;7.60;3.47;;;;;;;;;;5039472;28;20181;-83
2023/10/26 06:04:00;;;;;;;5.00;2.37;;;;;;;;;;5014502;28;20177;-83
2023/10/26 06:07:04;;;;;;;4.53;1.90;;;;;;;;;;5037559;28;20169;-83
2023/10/26 06:10:11;;;;;;;3.43;1.80;;;;;;;;;;5014243;28;20220;-83
2023/10/26 06:13:16;;;;;;;1.90;0.90;;;;;;;;;;5024957;28;20189;-83
2023/10/26 06:16:20;;;;;;;2.97;2.10;;;;;;;;;;5025726;28;20213;-83
2023/10/26 06:19:24;;;;;;;6.07;4.03;;;;;;;;;;5036931;28;20212;-83
2023/10/26 06:22:28;;;;;;;4.03;2.30;;;;;;;;;;5024915;28;20181;-83
2023/10/26 06:25:36;;;;;;;1.90;1.60;;;;;;;;;;5025527;28;20169;-85
2023/10/26 06:28:40;;;;;;;10.30;5.43;;;;;;;;;;5039683;28;20212;-82
2023/10/26 06:32:22;;;;;;;8.30;4.83;;;;;;;;;;5039403;28;20176;-83
2023/10/26 06:35:26;;;;;;;4.47;3.53;;;;;;;;;;5005777;28;20232;-83
2023/10/26 06:38:30;;;;;;;2.67;1.70;;;;;;;;;;5015942;28;20224;-83
2023/10/26 06:41:34;;;;;;;1.10;1.00;;;;;;;;;;5026909;28;20181;-83
2023/10/26 06:44:42;;;;;;;1.37;1.10;;;;;;;;;;5026284;28;20181;-83
2023/10/26 06:47:46;;;;;;;3.20;1.50;;;;;;;;;;5038669;28;20173;-83
2023/10/26 06:51:03;;;;;;;3.80;2.00;;;;;;;;;;5040483;28;20184;-82
2023/10/26 06:54:07;;;;;;;1.37;1.00;;;;;;;;;;5039433;28;20630;-83
2023/10/26 06:57:11;;;;;;;1.60;1.17;;;;;;;;;;5018084;28;20208;-83
2023/10/26 07:00:18;;;;;;;2.30;1.00;;;;;;;;;;5031641;28;20217;-83
2023/10/26 07:03:22;;;;;;;1.40;0.90;;;;;;;;;;5031890;28;20200;-83
2023/10/26 07:06:26;;;;;;;1.37;0.97;;;;;;;;;;5031918;28;20173;-83
2023/10/26 07:09:30;;;;;;;1.00;0.80;;;;;;;;;;5043190;28;20228;-83
2023/10/26 07:12:35;;;;;;;2.77;1.20;;;;;;;;;;5030617;28;20176;-83
2023/10/26 07:15:39;;;;;;;2.33;1.80;;;;;;;;;;5027486;28;20208;-83
2023/10/26 07:18:43;;;;;;;4.27;1.60;;;;;;;;;;5063063;28;20561;-83
2023/10/26 07:25:23;;;;;;;2.90;2.10;;;;;;;;;;5049814;28;20180;-83
2023/10/26 07:28:28;;;;;;;3.00;1.80;;;;;;;;;;5062067;28;20215;-83
2023/10/26 07:31:32;;;;;;;2.47;1.60;;;;;;;;;;5049996;28;20177;-83
2023/10/26 07:34:36;;;;;;;3.10;1.27;;;;;;;;;;5049437;28;20208;-83
2023/10/26 07:37:40;;;;;;;2.67;1.10;;;;;;;;;;5051442;28;20211;-83
2023/10/26 07:40:53;;;;;;;0.70;0.57;;;;;;;;;;5039645;28;20184;-82
2023/10/26 07:43:57;;;;;;;1.33;0.70;;;;;;;;;;5062695;28;20176;-82
2023/10/26 07:57:42;;;;;;;;;;;;;;;;;;;;;
2023/10/26 08:01:44;;;;;;;0.50;0.50;;;;;;;;;;5048227;28;20203;-88
2023/10/26 08:06:25;;;;;;;1.37;0.60;;;;;;;;;;4952798;29;20199;-88
2023/10/26 08:29:35;;;;;;;3.33;0.70;;;;;;;;;;5052224;28;20219;-89
2023/10/26 08:32:49;;;;;;;1.10;0.70;;;;;;;;;;5045947;28;20176;-89
2023/10/26 08:36:14;;;;;;;0.93;0.60;;;;;;;;;;5044268;28;20200;-89
2023/10/26 08:39:27;;;;;;;2.20;0.70;;;;;;;;;;5035869;28;20228;-89
2023/10/26 08:42:37;;;;;;;2.37;0.53;;;;;;;;;;5021546;28;20176;-89
2023/10/26 08:45:42;;;;;;;1.53;0.70;;;;;;;;;;5031931;28;20180;-89
2023/10/26 08:48:55;;;;;;;2.20;0.70;;;;;;;;;;5043457;28;20219;-87
2023/10/26 08:52:00;;;;;;;0.57;0.43;;;;;;;;;;5043226;28;20176;-89
2023/10/26 08:55:05;;;;;;;1.53;1.00;;;;;;;;;;5047155;28;20176;-89
2023/10/26 08:58:13;;;;;;;1.80;0.80;;;;;;;;;;5024167;28;20202;-89
2023/10/26 09:01:17;;;;;;;2.20;1.00;;;;;;;;;;5023717;28;20176;-89
2023/10/26 09:04:21;;;;;;;2.00;0.87;;;;;;;;;;5024109;28;20637;-89
2023/10/26 09:07:26;;;;;;;2.50;0.63;;;;;;;;;;5023703;28;20247;-88
2023/10/26 09:10:32;;;;;;;0.80;0.60;;;;;;;;;;5035232;28;20181;-89
2023/10/26 09:13:36;;;;;;;0.70;0.50;;;;;;;;;;5047502;28;20180;-89
2023/10/26 09:16:43;;;;;;;2.27;1.00;;;;;;;;;;5035096;28;20208;-89
2023/10/26 09:19:47;;;;;;;3.73;0.97;;;;;;;;;;5035451;28;20220;-89
2023/10/26 09:22:52;;;;;;;4.30;3.07;;;;;;;;;;5026868;28;20188;-89
2023/10/26 09:26:03;;;;;;;3.13;1.00;;;;;;;;;;5035152;28;20184;-89
2023/10/26 09:29:09;;;;;;;10.50;7.23;;;;;;;;;;5046082;28;20223;-89
2023/10/26 09:32:13;;;;;;;3.70;2.60;;;;;;;;;;5045587;28;20176;-89
2023/10/26 09:35:33;;;;;;;3.00;2.17;;;;;;;;;;5034568;28;20621;-90
2023/10/26 09:38:38;;;;;;;1.33;1.23;;;;;;;;;;5045307;28;20569;-89
2023/10/26 09:41:43;;;;;;;2.60;0.90;;;;;;;;;;5045790;28;20176;-89
2023/10/26 09:44:47;;;;;;;0.90;0.70;;;;;;;;;;5045410;28;20172;-90
2023/10/26 09:47:53;;;;;;;1.37;1.03;;;;;;;;;;5033720;28;20180;-89
2023/10/26 09:51:01;;;;;;;1.90;1.00;;;;;;;;;;5033939;28;20180;-89
2023/10/26 09:54:08;;;;;;;1.47;0.90;;;;;;;;;;5011483;28;20184;-89
2023/10/26 09:57:13;;;;;;;1.47;0.70;;;;;;;;;;5047606;28;20201;-88
2023/10/26 10:00:17;;;;;;;2.37;0.90;;;;;;;;;;5022309;28;20211;-89
2023/10/26 10:03:21;;;;;;;1.50;0.87;;;;;;;;;;5055924;28;20200;-89
2023/10/26 10:06:51;;;;;;;3.33;0.90;;;;;;;;;;5033513;28;20176;-90
2023/10/26 10:10:07;;;;;;;1.77;0.90;;;;;;;;;;5033047;28;20216;-89
2023/10/26 10:13:37;;;;;;;1.97;0.60;;;;;;;;;;5033278;28;20180;-90
2023/10/26 10:16:45;;;;;;;1.37;0.80;;;;;;;;;;5033232;28;20560;-90
2023/10/26 10:20:14;;;;;;;0.70;0.50;;;;;;;;;;5033211;28;20215;-90
2023/10/26 10:23:30;;;;;;;3.37;0.70;;;;;;;;;;5043908;28;20180;-90
2023/10/26 10:27:12;;;;;;;0.50;0.50;;;;;;;;;;5022192;28;20545;-89
2023/10/26 10:30:27;;;;;;;0.77;0.60;;;;;;;;;;5032608;28;20216;-90
2023/10/26 10:33:31;;;;;;;1.23;0.57;;;;;;;;;;5034427;28;20185;-90
2023/10/26 10:37:14;;;;;;;0.70;0.60;;;;;;;;;;5021551;28;20204;-90
2023/10/26 10:40:19;;;;;;;0.70;0.70;;;;;;;;;;5032557;28;20223;-89
2023/10/26 10:43:34;;;;;;;1.73;1.00;;;;;;;;;;5032118;28;20177;-89
2023/10/26 10:46:38;;;;;;;2.53;1.93;;;;;;;;;;5043738;28;20649;-89
2023/10/26 10:49:43;;;;;;;4.77;3.70;;;;;;;;;;5021320;28;20697;-91
2023/10/26 10:52:50;;;;;;;3.73;2.30;;;;;;;;;;5043303;28;20522;-90
2023/10/26 10:55:54;;;;;;;3.37;3.07;;;;;;;;;;5032361;28;20530;-91
2023/10/26 10:58:57;;;;;;;2.30;2.10;;;;;;;;;;5032175;28;20554;-91
2023/10/26 11:02:10;;;;;;;1.80;1.70;;;;;;;;;;5025397;28;20176;-91
2023/10/26 11:05:14;;;;;;;1.63;1.53;;;;;;;;;;5020860;28;20180;-90
2023/10/26 11:08:19;;;;;;;4.70;1.80;;;;;;;;;;5032415;28;20168;-91
2023/10/26 11:11:33;;;;;;;5.47;3.53;;;;;;;;;;5031825;28;20184;-91
2023/10/26 11:14:52;;;;;;;2.80;2.23;;;;;;;;;;5032438;28;20192;-91
2023/10/26 11:17:57;;;;;;;1.87;1.50;;;;;;;;;;5020819;28;20216;-90
2023/10/26 11:21:01;;;;;;;1.27;1.13;;;;;;;;;;5025126;28;20184;-91
2023/10/26 11:24:06;;;;;;;2.30;1.37;;;;;;;;;;5031514;28;20176;-91
2023/10/26 11:27:12;;;;;;;2.03;0.87;;;;;;;;;;5043420;28;20632;-90
2023/10/26 11:30:17;;;;;;;1.20;0.70;;;;;;;;;;5032053;28;20696;-91
2023/10/26 11:33:31;;;;;;;1.57;0.80;;;;;;;;;;5020149;28;20172;-91
2023/10/26 11:36:36;;;;;;;2.00;0.60;;;;;;;;;;5042830;28;20633;-90
2023/10/26 11:39:49;;;;;;;0.60;0.60;;;;;;;;;;5032520;28;20223;-90
2023/10/26 11:42:57;;;;;;;0.97;0.53;;;;;;;;;;5032548;28;20176;-90
2023/10/26 11:46:04;;;;;;;0.70;0.43;;;;;;;;;;5020961;28;20180;-90
2023/10/26 11:49:08;;;;;;;0.63;0.60;;;;;;;;;;5043682;28;20689;-90
2023/10/26 11:52:12;;;;;;;0.53;0.50;;;;;;;;;;5015200;28;20643;-90
2023/10/26 11:55:17;;;;;;;2.00;0.60;;;;;;;;;;5020663;28;20180;-90
2023/10/26 11:58:21;;;;;;;1.03;0.57;;;;;;;;;;5043539;28;20741;-90
2023/10/26 12:01:26;;;;;;;0.50;0.40;;;;;;;;;;5043064;28;20521;-91
2023/10/26 12:04:30;;;;;;;0.40;0.30;;;;;;;;;;5042964;28;20184;-90
2023/10/26 12:07:34;;;;;;;1.00;0.50;;;;;;;;;;5020220;28;20172;-90
2023/10/26 12:10:41;;;;;;;0.63;0.40;;;;;;;;;;5043161;28;20180;-90
2023/10/26 12:13:46;;;;;;;1.27;0.60;;;;;;;;;;5031330;28;20184;-90
2023/10/26 12:16:50;;;;;;;2.40;0.60;;;;;;;;;;5031069;28;20180;-90
2023/10/26 12:19:54;;;;;;;0.43;0.43;;;;;;;;;;5031166;28;20219;-91
2023/10/26 12:22:58;;;;;;;0.70;0.50;;;;;;;;;;5030973;28;20180;-90
2023/10/26 12:26:02;;;;;;;1.23;0.50;;;;;;;;;;5019790;28;20276;-88
2023/10/26 14:12:33;;;;;;;1.13;0.80;;;;;;;;;;4917934;29;20212;-86
2023/10/26 14:16:40;;;;;;;1.60;1.20;;;;;;;;;;4919781;29;20177;-87
2023/10/26 14:20:35;;;;;;;3.70;1.00;;;;;;;;;;4919585;29;20200;-86
2023/10/26 14:23:40;;;;;;;2.77;1.20;;;;;;;;;;4898139;29;20177;-86
2023/10/26 14:27:11;;;;;;;1.67;1.00;;;;;;;;;;4898015;29;20173;-86
2023/10/26 14:30:21;;;;;;;2.07;1.43;;;;;;;;;;4909520;29;20220;-86
2023/10/26 14:33:31;;;;;;;4.17;2.03;;;;;;;;;;4908271;29;20181;-86
2023/10/26 14:36:38;;;;;;;6.20;4.20;;;;;;;;;;4908801;29;20185;-86
2023/10/26 14:39:51;;;;;;;4.73;3.37;;;;;;;;;;4908731;29;20232;-86
2023/10/26 14:42:59;;;;;;;5.87;1.60;;;;;;;;;;4897940;29;20185;-86
2023/10/26 14:46:12;;;;;;;4.00;1.83;;;;;;;;;;4897929;29;20543;-86
2023/10/26 14:49:17;;;;;;;6.20;4.90;;;;;;;;;;4919299;29;20213;-86
2023/10/26 14:52:21;;;;;;;3.20;2.87;;;;;;;;;;4897196;29;20185;-86
2023/10/26 14:55:25;;;;;;;3.33;2.10;;;;;;;;;;4919500;29;20180;-86
2023/10/26 14:58:39;;;;;;;4.97;4.47;;;;;;;;;;4897373;29;20324;-86
2023/10/26 15:01:48;;;;;;;5.37;4.87;;;;;;;;;;4898337;29;20540;-86
2023/10/26 15:05:00;;;;;;;7.87;2.77;;;;;;;;;;4920083;29;20181;-86
2023/10/26 15:08:15;;;;;;;4.53;2.30;;;;;;;;;;4919120;29;20181;-86
2023/10/26 15:11:20;;;;;;;5.67;3.10;;;;;;;;;;4920018;29;20208;-86
2023/10/26 15:14:26;;;;;;;6.60;3.40;;;;;;;;;;4897537;29;20185;-86
2023/10/26 15:17:33;;;;;;;4.20;3.03;;;;;;;;;;4920001;29;20181;-86
2023/10/26 15:20:39;;;;;;;4.90;2.90;;;;;;;;;;4887195;29;20177;-86
2023/10/26 15:23:55;;;;;;;3.17;2.27;;;;;;;;;;4909301;29;20635;-86
2023/10/26 15:27:14;;;;;;;3.27;2.60;;;;;;;;;;4909034;29;20201;-86
2023/10/26 15:30:22;;;;;;;4.13;2.60;;;;;;;;;;4898135;29;20216;-86
2023/10/26 15:33:34;;;;;;;3.57;2.50;;;;;;;;;;4897717;29;20189;-86
2023/10/26 15:36:47;;;;;;;3.20;2.67;;;;;;;;;;4909068;29;20193;-86
2023/10/26 15:39:53;;;;;;;3.70;2.90;;;;;;;;;;4907909;29;20236;-86
2023/10/26 15:42:59;;;;;;;3.87;2.80;;;;;;;;;;4908087;29;20188;-86
2023/10/26 15:46:03;;;;;;;11.20;6.83;;;;;;;;;;4908245;29;20177;-86
2023/10/26 15:49:11;;;;;;;8.43;5.90;;;;;;;;;;4886006;29;20273;-86
2023/10/26 15:57:37;;;;;;;8.10;3.23;;;;;;;;;;4919544;29;20665;-86
2023/10/26 16:32:07;;;;;;;9.90;8.07;;;;;;;;;;4898076;29;20221;-86
2023/10/26 16:35:13;;;;;;;9.37;7.67;;;;;;;;;;4867079;29;20190;-86
2023/10/26 16:38:19;;;;;;;10.67;8.00;;;;;;;;;;4889652;29;20181;-86
2023/10/26 16:41:27;;;;;;;8.93;5.40;;;;;;;;;;4898950;29;20182;-86
2023/10/26 16:45:04;;;;;;;6.03;4.77;;;;;;;;;;4899163;29;20608;-86
2023/10/26 17:02:16;;;;;;;3.33;2.17;;;;;;;;;;4856729;29;20210;-86
2023/10/26 17:05:21;;;;;;;3.10;2.80;;;;;;;;;;4869142;29;20194;-87
2023/10/26 17:08:27;;;;;;;3.87;2.70;;;;;;;;;;4887286;29;20577;-87
2023/10/26 17:11:31;;;;;;;5.40;2.73;;;;;;;;;;4887128;29;20646;-86
2023/10/26 17:14:35;;;;;;;5.30;2.53;;;;;;;;;;4900006;29;20181;-87
2023/10/26 17:17:39;;;;;;;7.13;2.90;;;;;;;;;;4890496;29;20185;-86
2023/10/26 17:20:43;;;;;;;5.70;3.43;;;;;;;;;;4901872;29;20186;-86
2023/10/26 17:23:47;;;;;;;5.23;3.40;;;;;;;;;;4900604;29;20181;-86
2023/10/26 17:26:51;;;;;;;3.27;2.97;;;;;;;;;;4900873;29;20190;-87
2023/10/26 17:29:55;;;;;;;4.73;3.23;;;;;;;;;;4901097;29;20221;-86
2023/10/26 17:33:01;;;;;;;6.83;3.40;;;;;;;;;;4889704;29;20186;-86
2023/10/26 17:36:05;;;;;;;3.97;3.47;;;;;;;;;;4889690;29;20185;-86
2023/10/26 17:39:11;;;;;;;4.83;3.57;;;;;;;;;;4890205;29;20225;-86
2023/10/26 17:42:15;;;;;;;4.47;3.83;;;;;;;;;;4879112;29;20186;-86
2023/10/26 17:45:19;;;;;;;4.53;3.60;;;;;;;;;;4889589;29;20186;-87
2023/10/26 17:48:23;;;;;;;7.23;4.00;;;;;;;;;;4889582;29;20177;-87
2023/10/26 17:51:34;;;;;;;6.63;5.33;;;;;;;;;;4890454;29;20643;-87
2023/10/26 18:04:29;;;;;;;5.30;3.93;;;;;;;;;;4896859;29;20185;-87
2023/10/26 18:08:05;;;;;;;7.03;4.63;;;;;;;;;;4882339;29;20178;-87
2023/10/26 18:12:02;;;;;;;6.63;5.50;;;;;;;;;;4871935;29;20190;-87
2023/10/26 18:16:02;;;;;;;;;;;;;;;;;;;;;
2023/10/26 18:33:57;;;;;;;6.87;5.33;;;;;;;;;;5266138;23;20609;-87
2023/10/26 18:43:19;;;;;;;13.13;8.23;;;;;;;;;;4861471;29;20716;-87
2023/10/26 21:36:11;;;;;;;7.23;2.27;;;;;;;;;;5994513;23;21089;-85
2023/10/26 22:01:27;;;;;;;6.33;1.80;;;;;;;;;;5642128;23;20237;-87
2023/10/26 22:45:53;;;;;;;;;;;;;;;;;;;;;
2023/10/26 22:50:14;;;;;;;;;;;;;;;;;;;;;
2023/10/26 22:54:18;;;;;;;3.77;1.30;;;;;;;;;;4847223;29;20592;-86
2023/10/26 23:04:30;;;;;;;;;;;;;;;;;;;;;
2023/10/26 23:35:21;;;;;;;;;;;;;;;;;;;;;
2023/10/26 23:42:48;;;;;;;2.40;1.37;;;;;;;;;;4905373;23;20240;-86
2023/10/26 23:46:29;;;;;;;2.97;1.40;;;;;;;;;;4888992;29;20552;-87
2023/10/26 23:50:33;;;;;;;4.90;1.20;;;;;;;;;;4900113;29;20225;-86
